createdAt,value
2022-10-04T00:00:24.262Z,1020.8
2022-10-04T00:01:24.301Z,1020.9
2022-10-04T00:02:24.350Z,1020.8
2022-10-04T00:04:24.238Z,1020.9
2022-10-04T00:06:24.241Z,1020.8
2022-10-04T00:07:24.243Z,1020.8
2022-10-04T00:08:24.294Z,1020.8
2022-10-04T00:09:24.241Z,1020.8
2022-10-04T00:10:24.229Z,1020.7
2022-10-04T00:11:24.238Z,1020.7
2022-10-04T00:12:24.256Z,1020.8
2022-10-04T00:13:24.231Z,1020.8
2022-10-04T00:14:24.233Z,1020.8
2022-10-04T00:15:24.256Z,1020.8
2022-10-04T00:16:24.289Z,1020.7
2022-10-04T00:18:24.228Z,1020.7
2022-10-04T00:19:24.251Z,1020.7
2022-10-04T00:20:24.233Z,1020.7
2022-10-04T00:21:24.233Z,1020.6
2022-10-04T00:22:24.245Z,1020.6
2022-10-04T00:23:24.247Z,1020.6
2022-10-04T00:24:24.248Z,1020.6
2022-10-04T00:25:24.243Z,1020.6
2022-10-04T00:26:24.250Z,1020.6
2022-10-04T00:27:24.250Z,1020.6
2022-10-04T00:28:24.361Z,1020.6
2022-10-04T00:29:24.238Z,1020.5
2022-10-04T00:30:24.236Z,1020.5
2022-10-04T00:31:24.277Z,1020.5
2022-10-04T00:32:24.241Z,1020.5
2022-10-04T00:33:24.252Z,1020.5
2022-10-04T00:34:29.980Z,1020.5
2022-10-04T00:35:24.260Z,1020.5
2022-10-04T00:36:24.256Z,1020.5
2022-10-04T00:37:24.256Z,1020.5
2022-10-04T00:39:24.281Z,1020.5
2022-10-04T00:40:24.251Z,1020.5
2022-10-04T00:41:24.236Z,1020.4
2022-10-04T00:42:24.253Z,1020.4
2022-10-04T00:43:24.252Z,1020.4
2022-10-04T00:44:24.254Z,1020.5
2022-10-04T00:45:24.257Z,1020.5
2022-10-04T00:46:24.412Z,1020.5
2022-10-04T00:47:24.322Z,1020.6
2022-10-04T00:48:29.021Z,1020.6
2022-10-04T00:49:24.256Z,1020.6
2022-10-04T00:50:24.265Z,1020.6
2022-10-04T00:51:24.269Z,1020.6
2022-10-04T00:52:24.260Z,1020.6
2022-10-04T00:53:24.240Z,1020.6
2022-10-04T00:54:24.251Z,1020.6
2022-10-04T00:55:24.321Z,1020.6
2022-10-04T00:56:24.260Z,1020.5
2022-10-04T00:57:24.257Z,1020.5
2022-10-04T00:58:24.264Z,1020.5
2022-10-04T00:59:24.254Z,1020.5
2022-10-04T01:00:24.252Z,1020.5
2022-10-04T01:02:24.405Z,1020.5
2022-10-04T01:03:24.253Z,1020.4
2022-10-04T01:04:24.258Z,1020.5
2022-10-04T01:05:24.259Z,1020.4
2022-10-04T01:06:24.263Z,1020.4
2022-10-04T01:07:24.269Z,1020.4
2022-10-04T01:08:24.256Z,1020.4
2022-10-04T01:09:24.270Z,1020.3
2022-10-04T01:10:24.290Z,1020.3
2022-10-04T01:11:24.265Z,1020.4
2022-10-04T01:12:24.265Z,1020.3
2022-10-04T01:13:24.245Z,1020.4
2022-10-04T01:14:24.253Z,1020.4
2022-10-04T01:15:24.253Z,1020.4
2022-10-04T01:16:24.325Z,1020.4
2022-10-04T01:17:24.255Z,1020.4
2022-10-04T01:18:24.259Z,1020.4
2022-10-04T01:19:24.257Z,1020.4
2022-10-04T01:20:24.267Z,1020.4
2022-10-04T01:21:24.276Z,1020.3
2022-10-04T01:22:24.267Z,1020.3
2022-10-04T01:24:24.275Z,1020.2
2022-10-04T01:25:24.270Z,1020.2
2022-10-04T01:26:24.270Z,1020.2
2022-10-04T01:27:24.275Z,1020.2
2022-10-04T01:28:24.366Z,1020.1
2022-10-04T01:29:24.266Z,1020.1
2022-10-04T01:30:24.257Z,1020.2
2022-10-04T01:31:24.338Z,1020.2
2022-10-04T01:32:24.261Z,1020.2
2022-10-04T01:33:24.272Z,1020.2
2022-10-04T01:34:24.265Z,1020.1
2022-10-04T01:35:24.271Z,1020.1
2022-10-04T01:36:24.277Z,1020
2022-10-04T01:37:24.297Z,1020.1
2022-10-04T01:38:24.260Z,1020.1
2022-10-04T01:39:24.275Z,1020.1
2022-10-04T01:41:24.351Z,1020.1
2022-10-04T01:42:24.272Z,1020
2022-10-04T01:43:24.268Z,1020
2022-10-04T01:44:24.265Z,1020
2022-10-04T01:45:24.278Z,1020
2022-10-04T01:46:24.364Z,1020
2022-10-04T01:47:24.345Z,1020
2022-10-04T01:48:24.280Z,1019.9
2022-10-04T01:49:24.279Z,1019.9
2022-10-04T01:51:24.260Z,1019.9
2022-10-04T01:53:24.276Z,1019.9
2022-10-04T01:54:24.281Z,1019.9
2022-10-04T01:55:24.282Z,1019.9
2022-10-04T01:56:24.274Z,1019.9
2022-10-04T01:57:24.270Z,1019.8
2022-10-04T01:58:24.276Z,1019.8
2022-10-04T01:59:24.277Z,1019.8
2022-10-04T02:00:24.279Z,1019.8
2022-10-04T02:01:24.319Z,1019.8
2022-10-04T02:02:24.337Z,1019.8
2022-10-04T02:03:24.299Z,1019.8
2022-10-04T02:04:24.301Z,1019.8
2022-10-04T02:05:24.283Z,1019.8
2022-10-04T02:06:24.292Z,1019.8
2022-10-04T02:07:24.281Z,1019.8
2022-10-04T02:08:24.287Z,1019.8
2022-10-04T02:09:24.283Z,1019.7
2022-10-04T02:10:24.271Z,1019.7
2022-10-04T02:11:24.273Z,1019.7
2022-10-04T02:12:24.298Z,1019.7
2022-10-04T02:14:24.318Z,1019.7
2022-10-04T02:15:24.294Z,1019.7
2022-10-04T02:16:24.338Z,1019.7
2022-10-04T02:17:24.272Z,1019.7
2022-10-04T02:18:24.280Z,1019.7
2022-10-04T02:19:24.289Z,1019.7
2022-10-04T02:20:24.272Z,1019.7
2022-10-04T02:21:24.274Z,1019.7
2022-10-04T02:22:24.305Z,1019.7
2022-10-04T02:24:24.270Z,1019.6
2022-10-04T02:25:24.289Z,1019.6
2022-10-04T02:26:24.314Z,1019.5
2022-10-04T02:27:24.277Z,1019.5
2022-10-04T02:28:24.369Z,1019.5
2022-10-04T02:29:24.288Z,1019.5
2022-10-04T02:30:24.293Z,1019.5
2022-10-04T02:31:24.367Z,1019.5
2022-10-04T02:33:24.278Z,1019.4
2022-10-04T02:34:24.282Z,1019.5
2022-10-04T02:35:24.282Z,1019.4
2022-10-04T02:36:24.302Z,1019.5
2022-10-04T02:37:24.295Z,1019.5
2022-10-04T02:38:24.281Z,1019.4
2022-10-04T02:39:24.285Z,1019.5
2022-10-04T02:40:24.289Z,1019.5
2022-10-04T02:41:24.282Z,1019.4
2022-10-04T02:42:24.279Z,1019.5
2022-10-04T02:43:24.316Z,1019.4
2022-10-04T02:44:24.292Z,1019.4
2022-10-04T02:45:24.292Z,1019.5
2022-10-04T02:46:24.362Z,1019.4
2022-10-04T02:47:24.275Z,1019.4
2022-10-04T02:48:24.291Z,1019.4
2022-10-04T02:49:24.309Z,1019.5
2022-10-04T02:51:24.282Z,1019.5
2022-10-04T02:52:24.297Z,1019.4
2022-10-04T02:53:24.284Z,1019.4
2022-10-04T02:54:24.275Z,1019.4
2022-10-04T02:55:24.278Z,1019.4
2022-10-04T02:56:24.294Z,1019.4
2022-10-04T02:57:24.291Z,1019.4
2022-10-04T02:58:24.293Z,1019.3
2022-10-04T02:59:24.306Z,1019.3
2022-10-04T03:00:24.285Z,1019.3
2022-10-04T03:01:24.329Z,1019.3
2022-10-04T03:03:24.300Z,1019.4
2022-10-04T03:04:24.302Z,1019.4
2022-10-04T03:05:24.290Z,1019.3
2022-10-04T03:06:24.288Z,1019.3
2022-10-04T03:07:24.297Z,1019.4
2022-10-04T03:08:24.293Z,1019.3
2022-10-04T03:09:29.528Z,1019.3
2022-10-04T03:10:24.292Z,1019.3
2022-10-04T03:11:24.291Z,1019.3
2022-10-04T03:12:24.302Z,1019.3
2022-10-04T03:13:24.333Z,1019.3
2022-10-04T03:14:24.451Z,1019.3
2022-10-04T03:15:24.297Z,1019.3
2022-10-04T03:16:24.429Z,1019.3
2022-10-04T03:17:24.303Z,1019.2
2022-10-04T03:18:24.350Z,1019.2
2022-10-04T03:19:24.293Z,1019.2
2022-10-04T03:20:24.308Z,1019.2
2022-10-04T03:21:24.308Z,1019.2
2022-10-04T03:22:24.297Z,1019.1
2022-10-04T03:23:24.300Z,1019.1
2022-10-04T03:24:24.312Z,1019.2
2022-10-04T03:25:24.302Z,1019.2
2022-10-04T03:26:24.317Z,1019.2
2022-10-04T03:27:24.291Z,1019.2
2022-10-04T03:28:24.430Z,1019.2
2022-10-04T03:29:24.297Z,1019.2
2022-10-04T03:31:24.396Z,1019.2
2022-10-04T03:32:24.303Z,1019.2
2022-10-04T03:33:24.301Z,1019.2
2022-10-04T03:34:24.336Z,1019.2
2022-10-04T03:35:24.319Z,1019.2
2022-10-04T03:36:24.316Z,1019.2
2022-10-04T03:37:24.313Z,1019.2
2022-10-04T03:38:24.316Z,1019.2
2022-10-04T03:39:24.313Z,1019.2
2022-10-04T03:40:24.340Z,1019.2
2022-10-04T03:41:24.310Z,1019.2
2022-10-04T03:43:24.308Z,1019.1
2022-10-04T03:44:24.318Z,1019.2
2022-10-04T03:45:24.497Z,1019.1
2022-10-04T03:47:24.295Z,1019.1
2022-10-04T03:48:24.298Z,1019.1
2022-10-04T03:49:24.306Z,1019.1
2022-10-04T03:50:24.298Z,1019.1
2022-10-04T03:51:24.296Z,1019
2022-10-04T03:52:24.299Z,1019
2022-10-04T03:53:24.298Z,1019
2022-10-04T03:54:24.298Z,1019
2022-10-04T03:55:24.329Z,1019
2022-10-04T03:56:24.297Z,1019
2022-10-04T03:57:24.311Z,1019
2022-10-04T03:58:24.319Z,1019.1
2022-10-04T03:59:24.318Z,1019
2022-10-04T04:00:24.328Z,1019
2022-10-04T04:01:24.366Z,1019.1
2022-10-04T04:02:24.368Z,1019
2022-10-04T04:03:24.327Z,1019
2022-10-04T04:04:24.319Z,1019
2022-10-04T04:05:24.308Z,1018.9
2022-10-04T04:06:24.305Z,1018.9
2022-10-04T04:08:24.376Z,1019
2022-10-04T04:09:24.315Z,1018.9
2022-10-04T04:10:24.314Z,1018.9
2022-10-04T04:11:24.323Z,1018.9
2022-10-04T04:12:24.316Z,1018.9
2022-10-04T04:13:24.314Z,1018.9
2022-10-04T04:14:24.323Z,1018.9
2022-10-04T04:15:24.320Z,1018.9
2022-10-04T04:16:24.412Z,1018.9
2022-10-04T04:17:24.316Z,1018.9
2022-10-04T04:18:24.319Z,1018.9
2022-10-04T04:19:24.310Z,1018.9
2022-10-04T04:20:24.334Z,1018.9
2022-10-04T04:21:24.314Z,1018.9
2022-10-04T04:22:24.312Z,1018.9
2022-10-04T04:23:24.317Z,1018.9
2022-10-04T04:24:24.317Z,1018.9
2022-10-04T04:25:24.333Z,1018.9
2022-10-04T04:26:24.313Z,1018.9
2022-10-04T04:27:28.951Z,1018.9
2022-10-04T04:29:24.311Z,1018.8
2022-10-04T04:30:24.338Z,1018.8
2022-10-04T04:31:24.379Z,1018.9
2022-10-04T04:32:24.323Z,1018.8
2022-10-04T04:33:24.317Z,1018.9
2022-10-04T04:34:24.324Z,1018.9
2022-10-04T04:35:24.347Z,1018.8
2022-10-04T04:36:24.314Z,1018.8
2022-10-04T04:37:24.312Z,1018.9
2022-10-04T04:38:24.317Z,1018.8
2022-10-04T04:39:24.308Z,1018.8
2022-10-04T04:40:24.317Z,1018.8
2022-10-04T04:41:24.316Z,1018.7
2022-10-04T04:42:24.315Z,1018.7
2022-10-04T04:43:24.317Z,1018.7
2022-10-04T04:44:24.345Z,1018.6
2022-10-04T04:45:24.320Z,1018.6
2022-10-04T04:46:27.565Z,1018.6
2022-10-04T04:47:24.344Z,1018.6
2022-10-04T04:48:24.330Z,1018.6
2022-10-04T04:50:24.355Z,1018.6
2022-10-04T04:51:24.320Z,1018.6
2022-10-04T04:52:24.314Z,1018.6
2022-10-04T04:53:24.326Z,1018.6
2022-10-04T04:54:24.321Z,1018.6
2022-10-04T04:55:24.320Z,1018.6
2022-10-04T04:56:24.336Z,1018.6
2022-10-04T04:57:24.339Z,1018.6
2022-10-04T04:58:24.325Z,1018.6
2022-10-04T04:59:24.323Z,1018.6
2022-10-04T05:00:24.322Z,1018.6
2022-10-04T05:01:24.375Z,1018.6
2022-10-04T05:02:24.369Z,1018.6
2022-10-04T05:03:24.327Z,1018.6
2022-10-04T05:04:24.321Z,1018.6
2022-10-04T05:05:24.396Z,1018.6
2022-10-04T05:06:24.323Z,1018.6
2022-10-04T05:07:24.319Z,1018.6
2022-10-04T05:08:24.322Z,1018.5
2022-10-04T05:09:24.323Z,1018.5
2022-10-04T05:11:24.322Z,1018.5
2022-10-04T05:12:24.316Z,1018.5
2022-10-04T05:13:24.339Z,1018.5
2022-10-04T05:14:24.332Z,1018.5
2022-10-04T05:15:24.340Z,1018.5
2022-10-04T05:16:24.382Z,1018.5
2022-10-04T05:17:24.339Z,1018.5
2022-10-04T05:18:24.347Z,1018.5
2022-10-04T05:19:24.339Z,1018.5
2022-10-04T05:20:24.323Z,1018.5
2022-10-04T05:21:24.327Z,1018.5
2022-10-04T05:22:24.336Z,1018.5
2022-10-04T05:23:24.327Z,1018.5
2022-10-04T05:24:24.326Z,1018.5
2022-10-04T05:25:24.327Z,1018.5
2022-10-04T05:26:24.328Z,1018.5
2022-10-04T05:27:24.400Z,1018.5
2022-10-04T05:28:24.433Z,1018.6
2022-10-04T05:29:24.324Z,1018.6
2022-10-04T05:30:24.330Z,1018.6
2022-10-04T05:31:24.418Z,1018.6
2022-10-04T05:32:24.332Z,1018.6
2022-10-04T05:33:24.336Z,1018.5
2022-10-04T05:34:24.330Z,1018.6
2022-10-04T05:35:24.326Z,1018.6
2022-10-04T05:36:24.329Z,1018.6
2022-10-04T05:37:24.334Z,1018.6
2022-10-04T05:38:24.326Z,1018.6
2022-10-04T05:39:24.326Z,1018.7
2022-10-04T05:40:24.341Z,1018.7
2022-10-04T05:41:24.343Z,1018.7
2022-10-04T05:42:24.336Z,1018.6
2022-10-04T05:43:24.327Z,1018.7
2022-10-04T05:44:24.324Z,1018.6
2022-10-04T05:45:24.328Z,1018.6
2022-10-04T05:46:24.325Z,1018.7
2022-10-04T05:47:24.335Z,1018.7
2022-10-04T05:48:24.333Z,1018.7
2022-10-04T05:49:24.356Z,1018.7
2022-10-04T05:50:24.336Z,1018.7
2022-10-04T05:51:24.342Z,1018.6
2022-10-04T05:52:24.341Z,1018.6
2022-10-04T05:53:24.343Z,1018.6
2022-10-04T05:54:24.334Z,1018.5
2022-10-04T05:55:24.347Z,1018.5
2022-10-04T05:56:24.333Z,1018.5
2022-10-04T05:57:24.402Z,1018.6
2022-10-04T05:58:24.343Z,1018.6
2022-10-04T05:59:24.356Z,1018.5
2022-10-04T06:00:24.348Z,1018.6
2022-10-04T06:01:24.383Z,1018.6
2022-10-04T06:02:24.385Z,1018.6
2022-10-04T06:04:24.367Z,1018.6
2022-10-04T06:05:28.803Z,1018.6
2022-10-04T06:06:24.337Z,1018.6
2022-10-04T06:07:24.336Z,1018.6
2022-10-04T06:08:24.340Z,1018.6
2022-10-04T06:09:24.356Z,1018.6
2022-10-04T06:10:24.345Z,1018.6
2022-10-04T06:11:24.352Z,1018.6
2022-10-04T06:12:24.349Z,1018.6
2022-10-04T06:13:24.335Z,1018.6
2022-10-04T06:14:24.367Z,1018.6
2022-10-04T06:15:24.345Z,1018.6
2022-10-04T06:16:24.384Z,1018.6
2022-10-04T06:17:24.351Z,1018.6
2022-10-04T06:18:24.333Z,1018.6
2022-10-04T06:19:24.338Z,1018.6
2022-10-04T06:20:24.385Z,1018.5
2022-10-04T06:21:24.341Z,1018.6
2022-10-04T06:22:24.339Z,1018.6
2022-10-04T06:23:24.344Z,1018.6
2022-10-04T06:24:27.109Z,1018.6
2022-10-04T06:25:24.344Z,1018.5
2022-10-04T06:26:24.360Z,1018.6
2022-10-04T06:27:24.348Z,1018.6
2022-10-04T06:28:24.523Z,1018.6
2022-10-04T06:29:24.347Z,1018.6
2022-10-04T06:30:24.479Z,1018.7
2022-10-04T06:31:24.361Z,1018.6
2022-10-04T06:32:24.346Z,1018.6
2022-10-04T06:33:24.366Z,1018.6
2022-10-04T06:34:24.340Z,1018.6
2022-10-04T06:35:24.341Z,1018.7
2022-10-04T06:36:24.420Z,1018.6
2022-10-04T06:37:24.374Z,1018.6
2022-10-04T06:38:24.342Z,1018.7
2022-10-04T06:39:24.345Z,1018.6
2022-10-04T06:40:24.344Z,1018.6
2022-10-04T06:41:24.353Z,1018.7
2022-10-04T06:42:24.351Z,1018.7
2022-10-04T06:43:24.352Z,1018.6
2022-10-04T06:44:24.350Z,1018.6
2022-10-04T06:45:24.356Z,1018.6
2022-10-04T06:46:24.429Z,1018.6
2022-10-04T06:47:24.356Z,1018.6
2022-10-04T06:48:24.349Z,1018.6
2022-10-04T06:49:24.351Z,1018.6
2022-10-04T06:50:24.349Z,1018.6
2022-10-04T06:51:24.479Z,1018.7
2022-10-04T06:52:24.365Z,1018.7
2022-10-04T06:53:24.351Z,1018.7
2022-10-04T06:54:24.357Z,1018.7
2022-10-04T06:55:24.355Z,1018.7
2022-10-04T06:56:24.359Z,1018.7
2022-10-04T06:57:24.352Z,1018.7
2022-10-04T06:58:24.351Z,1018.7
2022-10-04T06:59:24.355Z,1018.7
2022-10-04T07:00:24.462Z,1018.7
2022-10-04T07:01:24.467Z,1018.7
2022-10-04T07:02:24.439Z,1018.7
2022-10-04T07:03:24.363Z,1018.7
2022-10-04T07:04:24.358Z,1018.7
2022-10-04T07:05:24.352Z,1018.8
2022-10-04T07:06:24.374Z,1018.7
2022-10-04T07:07:24.366Z,1018.7
2022-10-04T07:08:24.358Z,1018.7
2022-10-04T07:09:24.359Z,1018.7
2022-10-04T07:10:24.459Z,1018.7
2022-10-04T07:11:24.375Z,1018.7
2022-10-04T07:12:24.365Z,1018.7
2022-10-04T07:13:24.362Z,1018.7
2022-10-04T07:14:24.379Z,1018.7
2022-10-04T07:15:24.369Z,1018.7
2022-10-04T07:16:24.428Z,1018.7
2022-10-04T07:17:24.371Z,1018.6
2022-10-04T07:18:24.391Z,1018.6
2022-10-04T07:19:24.364Z,1018.6
2022-10-04T07:20:24.403Z,1018.6
2022-10-04T07:21:24.429Z,1018.6
2022-10-04T07:22:24.389Z,1018.6
2022-10-04T07:23:28.388Z,1018.6
2022-10-04T07:25:24.366Z,1018.6
2022-10-04T07:26:24.364Z,1018.6
2022-10-04T07:27:24.365Z,1018.6
2022-10-04T07:28:24.430Z,1018.7
2022-10-04T07:29:24.360Z,1018.7
2022-10-04T07:30:24.371Z,1018.7
2022-10-04T07:31:24.492Z,1018.8
2022-10-04T07:32:24.387Z,1018.8
2022-10-04T07:33:24.391Z,1018.8
2022-10-04T07:34:24.369Z,1018.8
2022-10-04T07:35:24.394Z,1018.8
2022-10-04T07:36:24.379Z,1018.8
2022-10-04T07:37:24.399Z,1018.8
2022-10-04T07:38:24.372Z,1018.8
2022-10-04T07:39:24.373Z,1018.9
2022-10-04T07:40:24.373Z,1018.9
2022-10-04T07:41:24.366Z,1018.9
2022-10-04T07:42:24.372Z,1018.9
2022-10-04T07:43:24.366Z,1018.9
2022-10-04T07:44:24.374Z,1018.9
2022-10-04T07:45:29.161Z,1018.9
2022-10-04T07:46:24.444Z,1019
2022-10-04T07:47:24.373Z,1018.9
2022-10-04T07:48:24.378Z,1018.9
2022-10-04T07:49:24.377Z,1018.9
2022-10-04T07:50:24.373Z,1018.9
2022-10-04T07:51:24.378Z,1019
2022-10-04T07:52:24.377Z,1019
2022-10-04T07:53:24.409Z,1019
2022-10-04T07:55:24.371Z,1018.9
2022-10-04T07:56:24.375Z,1019
2022-10-04T07:57:24.373Z,1019
2022-10-04T07:58:24.440Z,1018.9
2022-10-04T07:59:24.375Z,1019
2022-10-04T08:00:24.383Z,1018.9
2022-10-04T08:01:24.380Z,1018.9
2022-10-04T08:02:28.885Z,1018.8
2022-10-04T08:03:24.468Z,1018.8
2022-10-04T08:04:24.384Z,1018.8
2022-10-04T08:05:24.374Z,1018.8
2022-10-04T08:06:24.390Z,1018.8
2022-10-04T08:07:24.386Z,1018.8
2022-10-04T08:08:24.410Z,1018.8
2022-10-04T08:09:24.384Z,1018.8
2022-10-04T08:10:24.402Z,1018.8
2022-10-04T08:11:24.398Z,1018.8
2022-10-04T08:12:24.390Z,1018.8
2022-10-04T08:13:24.400Z,1018.8
2022-10-04T08:14:24.389Z,1018.8
2022-10-04T08:15:24.397Z,1018.8
2022-10-04T08:16:24.432Z,1018.8
2022-10-04T08:17:24.385Z,1018.8
2022-10-04T08:18:24.410Z,1018.8
2022-10-04T08:19:24.395Z,1018.8
2022-10-04T08:20:24.393Z,1018.8
2022-10-04T08:21:24.395Z,1018.8
2022-10-04T08:22:24.386Z,1018.7
2022-10-04T08:23:24.393Z,1018.8
2022-10-04T08:25:24.394Z,1018.8
2022-10-04T08:26:24.394Z,1018.8
2022-10-04T08:27:24.408Z,1018.9
2022-10-04T08:28:24.436Z,1018.8
2022-10-04T08:29:24.395Z,1018.8
2022-10-04T08:30:24.398Z,1018.8
2022-10-04T08:31:24.468Z,1018.8
2022-10-04T08:32:24.387Z,1018.8
2022-10-04T08:33:24.428Z,1018.9
2022-10-04T08:34:24.387Z,1018.9
2022-10-04T08:35:24.394Z,1018.9
2022-10-04T08:36:24.396Z,1018.8
2022-10-04T08:38:24.402Z,1018.9
2022-10-04T08:39:24.437Z,1018.8
2022-10-04T08:40:24.421Z,1018.8
2022-10-04T08:41:24.404Z,1018.8
2022-10-04T08:42:24.414Z,1018.9
2022-10-04T08:43:24.396Z,1018.9
2022-10-04T08:44:24.402Z,1018.9
2022-10-04T08:45:24.423Z,1018.9
2022-10-04T08:46:24.473Z,1018.9
2022-10-04T08:47:24.401Z,1018.9
2022-10-04T08:48:24.400Z,1018.9
2022-10-04T08:49:24.423Z,1018.9
2022-10-04T08:50:24.400Z,1018.9
2022-10-04T08:51:24.401Z,1018.9
2022-10-04T08:52:24.431Z,1018.9
2022-10-04T08:53:24.400Z,1018.8
2022-10-04T08:54:24.410Z,1018.9
2022-10-04T08:55:24.414Z,1018.8
2022-10-04T08:56:24.421Z,1018.8
2022-10-04T08:57:24.407Z,1018.8
2022-10-04T08:58:24.466Z,1018.8
2022-10-04T08:59:24.421Z,1018.8
2022-10-04T09:00:24.410Z,1018.8
2022-10-04T09:01:24.484Z,1018.7
2022-10-04T09:02:24.467Z,1018.8
2022-10-04T09:03:25.040Z,1018.8
2022-10-04T09:04:24.404Z,1018.8
2022-10-04T09:05:24.412Z,1018.7
2022-10-04T09:06:24.415Z,1018.7
2022-10-04T09:07:24.412Z,1018.7
2022-10-04T09:08:24.405Z,1018.7
2022-10-04T09:09:24.413Z,1018.7
2022-10-04T09:10:25.329Z,1018.6
2022-10-04T09:11:24.416Z,1018.6
2022-10-04T09:12:24.411Z,1018.6
2022-10-04T09:13:24.409Z,1018.6
2022-10-04T09:14:24.435Z,1018.5
2022-10-04T09:15:24.412Z,1018.6
2022-10-04T09:16:24.569Z,1018.5
2022-10-04T09:17:24.442Z,1018.6
2022-10-04T09:18:24.428Z,1018.5
2022-10-04T09:19:24.424Z,1018.6
2022-10-04T09:20:38.417Z,1018.6
2022-10-04T09:21:24.407Z,1018.6
2022-10-04T09:22:24.420Z,1018.6
2022-10-04T09:23:24.413Z,1018.5
2022-10-04T09:24:24.410Z,1018.5
2022-10-04T09:25:24.415Z,1018.5
2022-10-04T09:26:24.421Z,1018.5
2022-10-04T09:27:50.394Z,1018.4
2022-10-04T09:28:24.554Z,1018.4
2022-10-04T09:29:24.417Z,1018.4
2022-10-04T09:30:24.414Z,1018.4
2022-10-04T09:32:24.431Z,1018.4
2022-10-04T09:33:24.428Z,1018.4
2022-10-04T09:34:24.418Z,1018.4
2022-10-04T09:35:24.413Z,1018.4
2022-10-04T09:36:24.423Z,1018.4
2022-10-04T09:37:24.417Z,1018.4
2022-10-04T09:38:24.415Z,1018.4
2022-10-04T09:39:31.727Z,1018.4
2022-10-04T09:40:24.421Z,1018.4
2022-10-04T09:41:24.445Z,1018.4
2022-10-04T09:42:24.424Z,1018.4
2022-10-04T09:43:24.448Z,1018.3
2022-10-04T09:44:24.432Z,1018.4
2022-10-04T09:45:24.435Z,1018.3
2022-10-04T09:46:24.529Z,1018.4
2022-10-04T09:47:24.430Z,1018.3
2022-10-04T09:48:24.432Z,1018.4
2022-10-04T09:49:24.441Z,1018.3
2022-10-04T09:50:24.440Z,1018.3
2022-10-04T09:51:24.442Z,1018.3
2022-10-04T09:52:24.429Z,1018.3
2022-10-04T09:53:24.428Z,1018.2
2022-10-04T09:54:24.427Z,1018.2
2022-10-04T09:55:24.425Z,1018.2
2022-10-04T09:56:24.428Z,1018.2
2022-10-04T09:57:24.450Z,1018.2
2022-10-04T09:58:24.425Z,1018.2
2022-10-04T09:59:24.435Z,1018.2
2022-10-04T10:00:24.430Z,1018.1
2022-10-04T10:01:24.530Z,1018.2
2022-10-04T10:02:24.488Z,1018.1
2022-10-04T10:03:24.429Z,1018.1
2022-10-04T10:04:24.448Z,1018.1
2022-10-04T10:05:24.441Z,1018.1
2022-10-04T10:06:24.439Z,1018.1
2022-10-04T10:07:24.435Z,1018.1
2022-10-04T10:08:28.083Z,1018.1
2022-10-04T10:09:24.434Z,1018.1
2022-10-04T10:10:24.440Z,1018.2
2022-10-04T10:11:24.429Z,1018.2
2022-10-04T10:12:24.470Z,1018.1
2022-10-04T10:13:26.832Z,1018.2
2022-10-04T10:14:24.438Z,1018.2
2022-10-04T10:15:24.447Z,1018.2
2022-10-04T10:16:24.580Z,1018.2
2022-10-04T10:17:24.444Z,1018.2
2022-10-04T10:19:28.151Z,1018.2
2022-10-04T10:20:24.448Z,1018.2
2022-10-04T10:21:24.470Z,1018.2
2022-10-04T10:22:24.444Z,1018.3
2022-10-04T10:23:24.442Z,1018.3
2022-10-04T10:24:24.441Z,1018.2
2022-10-04T10:25:24.455Z,1018.2
2022-10-04T10:26:24.448Z,1018.2
2022-10-04T10:27:24.441Z,1018.2
2022-10-04T10:28:24.530Z,1018.2
2022-10-04T10:29:24.445Z,1018.3
2022-10-04T10:30:24.455Z,1018.3
2022-10-04T10:31:24.559Z,1018.3
2022-10-04T10:32:24.462Z,1018.2
2022-10-04T10:33:24.458Z,1018.2
2022-10-04T10:34:24.453Z,1018.2
2022-10-04T10:35:24.460Z,1018.2
2022-10-04T10:36:24.448Z,1018.2
2022-10-04T10:38:24.458Z,1018.1
2022-10-04T10:40:24.447Z,1018.2
2022-10-04T10:41:24.454Z,1018.2
2022-10-04T10:42:24.451Z,1018.2
2022-10-04T10:43:24.537Z,1018.2
2022-10-04T10:44:24.458Z,1018.2
2022-10-04T10:45:24.472Z,1018.2
2022-10-04T10:46:24.488Z,1018.2
2022-10-04T10:47:24.457Z,1018.2
2022-10-04T10:48:24.457Z,1018.2
2022-10-04T10:49:24.441Z,1018.2
2022-10-04T10:50:24.469Z,1018.2
2022-10-04T10:51:24.454Z,1018.1
2022-10-04T10:52:24.459Z,1018.1
2022-10-04T10:53:24.472Z,1018
2022-10-04T10:54:24.459Z,1018.1
2022-10-04T10:55:24.456Z,1018.1
2022-10-04T10:57:24.456Z,1018.1
2022-10-04T10:58:24.453Z,1018.1
2022-10-04T10:59:24.464Z,1018.1
2022-10-04T11:01:24.526Z,1018
2022-10-04T11:02:42.230Z,1018
2022-10-04T11:03:27.268Z,1017.9
2022-10-04T11:04:24.460Z,1017.9
2022-10-04T11:05:24.472Z,1017.9
2022-10-04T11:06:24.467Z,1017.9
2022-10-04T11:07:24.464Z,1017.9
2022-10-04T11:08:24.467Z,1017.9
2022-10-04T11:09:24.471Z,1017.9
2022-10-04T11:10:24.468Z,1017.9
2022-10-04T11:11:24.480Z,1017.9
2022-10-04T11:12:24.464Z,1017.9
2022-10-04T11:13:24.459Z,1018
2022-10-04T11:14:24.504Z,1017.9
2022-10-04T11:15:24.467Z,1017.9
2022-10-04T11:16:24.489Z,1018
2022-10-04T11:17:24.498Z,1017.9
2022-10-04T11:18:24.475Z,1017.8
2022-10-04T11:19:24.472Z,1017.9
2022-10-04T11:20:24.470Z,1017.8
2022-10-04T11:22:24.553Z,1017.9
2022-10-04T11:23:24.468Z,1017.8
2022-10-04T11:24:24.463Z,1017.9
2022-10-04T11:25:24.466Z,1017.9
2022-10-04T11:26:24.517Z,1017.8
2022-10-04T11:27:24.472Z,1017.8
2022-10-04T11:28:24.568Z,1017.8
2022-10-04T11:29:24.474Z,1017.8
2022-10-04T11:30:24.479Z,1017.8
2022-10-04T11:31:24.548Z,1017.8
2022-10-04T11:32:24.480Z,1017.8
2022-10-04T11:33:24.474Z,1017.8
2022-10-04T11:34:24.483Z,1017.7
2022-10-04T11:35:24.493Z,1017.8
2022-10-04T11:36:24.470Z,1017.7
2022-10-04T11:37:24.478Z,1017.7
2022-10-04T11:38:24.475Z,1017.7
2022-10-04T11:39:24.472Z,1017.6
2022-10-04T11:40:24.548Z,1017.7
2022-10-04T11:41:24.477Z,1017.6
2022-10-04T11:42:24.493Z,1017.7
2022-10-04T11:43:24.486Z,1017.7
2022-10-04T11:44:24.474Z,1017.6
2022-10-04T11:45:24.509Z,1017.7
2022-10-04T11:46:24.544Z,1017.7
2022-10-04T11:47:24.483Z,1017.6
2022-10-04T11:48:24.498Z,1017.6
2022-10-04T11:49:24.487Z,1017.6
2022-10-04T11:50:24.485Z,1017.6
2022-10-04T11:51:24.483Z,1017.6
2022-10-04T11:52:24.484Z,1017.6
2022-10-04T11:53:24.501Z,1017.6
2022-10-04T11:54:24.485Z,1017.6
2022-10-04T11:55:24.482Z,1017.6
2022-10-04T11:56:24.491Z,1017.7
2022-10-04T11:57:24.485Z,1017.6
2022-10-04T11:59:24.488Z,1017.7
2022-10-04T12:00:24.489Z,1017.6
2022-10-04T12:01:24.518Z,1017.6
2022-10-04T12:02:24.486Z,1017.6
2022-10-04T12:03:24.523Z,1017.6
2022-10-04T12:04:24.575Z,1017.6
2022-10-04T12:05:24.484Z,1017.5
2022-10-04T12:06:24.492Z,1017.5
2022-10-04T12:08:24.491Z,1017.5
2022-10-04T12:09:24.485Z,1017.5
2022-10-04T12:10:24.483Z,1017.5
2022-10-04T12:11:24.489Z,1017.4
2022-10-04T12:12:24.538Z,1017.4
2022-10-04T12:13:24.520Z,1017.4
2022-10-04T12:14:24.503Z,1017.4
2022-10-04T12:15:24.494Z,1017.4
2022-10-04T12:16:24.714Z,1017.4
2022-10-04T12:17:24.499Z,1017.4
2022-10-04T12:18:24.499Z,1017.3
2022-10-04T12:19:24.499Z,1017.3
2022-10-04T12:20:24.492Z,1017.3
2022-10-04T12:21:24.496Z,1017.3
2022-10-04T12:22:24.492Z,1017.3
2022-10-04T12:23:24.496Z,1017.3
2022-10-04T12:24:24.499Z,1017.3
2022-10-04T12:26:24.496Z,1017.3
2022-10-04T12:27:24.505Z,1017.3
2022-10-04T12:29:24.508Z,1017.3
2022-10-04T12:30:24.540Z,1017.3
2022-10-04T12:31:24.593Z,1017.2
2022-10-04T12:32:24.571Z,1017.3
2022-10-04T12:33:24.509Z,1017.2
2022-10-04T12:34:24.489Z,1017.2
2022-10-04T12:35:24.501Z,1017.2
2022-10-04T12:36:24.510Z,1017.1
2022-10-04T12:37:24.500Z,1017.2
2022-10-04T12:38:24.499Z,1017.1
2022-10-04T12:39:24.499Z,1017.2
2022-10-04T12:41:24.503Z,1017.1
2022-10-04T12:42:24.510Z,1017
2022-10-04T12:43:24.508Z,1017
2022-10-04T12:44:24.520Z,1017
2022-10-04T12:45:24.605Z,1016.9
2022-10-04T12:46:24.522Z,1017
2022-10-04T12:47:24.544Z,1017
2022-10-04T12:48:24.510Z,1016.9
2022-10-04T12:50:24.525Z,1016.9
2022-10-04T12:51:24.507Z,1016.9
2022-10-04T12:52:24.519Z,1016.9
2022-10-04T12:53:24.515Z,1016.9
2022-10-04T12:54:24.534Z,1016.9
2022-10-04T12:55:24.520Z,1017
2022-10-04T12:56:24.510Z,1017
2022-10-04T12:57:24.507Z,1016.9
2022-10-04T12:58:24.517Z,1016.9
2022-10-04T12:59:24.508Z,1016.9
2022-10-04T13:00:24.519Z,1016.9
2022-10-04T13:01:24.565Z,1016.9
2022-10-04T13:02:24.569Z,1016.9
2022-10-04T13:03:24.522Z,1016.9
2022-10-04T13:04:24.528Z,1016.9
2022-10-04T13:05:24.535Z,1016.9
2022-10-04T13:06:24.532Z,1016.9
2022-10-04T13:07:24.536Z,1016.9
2022-10-04T13:08:24.528Z,1016.9
2022-10-04T13:09:24.529Z,1016.9